Time;durP1;ratioP1;P1;durP2;ratioP2;P2;SDS_P1;SDS_P2;PMS_P1;PMS_P2;Temp;Humidity;BMP_temperature;BMP_pressure;BME280_temperature;BME280_humidity;BME280_pressure;Samples;Min_cycle;Max_cycle;Signal;HPM_P1;HPM_P2
2021/07/17 00:00:05;;;;;;;3.97;3.30;;;17.70;90.10;;;;;;4941670;28;20028;-74
2021/07/17 00:02:30;;;;;;;3.38;3.08;;;17.60;90.00;;;;;;4943556;28;20097;-73
2021/07/17 00:04:56;;;;;;;2.70;2.50;;;17.60;90.00;;;;;;4945925;28;20443;-73
2021/07/17 00:07:23;;;;;;;3.13;2.83;;;17.60;90.00;;;;;;4947028;28;20035;-73
2021/07/17 00:09:48;;;;;;;4.32;3.30;;;17.60;90.00;;;;;;4943041;28;20403;-73
2021/07/17 00:12:14;;;;;;;3.70;3.40;;;17.60;90.10;;;;;;4943924;28;20038;-73
2021/07/17 00:14:40;;;;;;;5.22;4.00;;;17.60;90.20;;;;;;4940156;28;20394;-74
2021/07/17 00:17:05;;;;;;;3.50;3.20;;;17.60;90.10;;;;;;4944278;28;20057;-74
2021/07/17 00:19:31;;;;;;;4.85;3.45;;;17.60;90.00;;;;;;4938572;28;20154;-73
2021/07/17 00:21:57;;;;;;;4.38;3.50;;;17.60;90.20;;;;;;4944574;28;20035;-73
2021/07/17 00:24:22;;;;;;;4.00;3.60;;;17.60;90.10;;;;;;4946832;28;20082;-73
2021/07/17 00:26:49;;;;;;;3.80;3.40;;;17.60;90.10;;;;;;4944580;28;20030;-72
2021/07/17 00:29:14;;;;;;;5.15;4.07;;;17.70;90.00;;;;;;4937939;28;20319;-73
2021/07/17 00:31:40;;;;;;;5.57;3.58;;;17.70;90.20;;;;;;4947915;28;20043;-73
2021/07/17 00:34:05;;;;;;;6.63;3.70;;;17.60;90.60;;;;;;4941523;28;20134;-72
2021/07/17 00:36:31;;;;;;;3.92;3.53;;;17.70;90.20;;;;;;4944564;28;20035;-73
2021/07/17 00:38:57;;;;;;;4.82;3.72;;;17.60;90.40;;;;;;4948040;28;20038;-72
2021/07/17 00:41:22;;;;;;;4.13;3.72;;;17.60;90.30;;;;;;4955445;28;20050;-73
2021/07/17 00:43:48;;;;;;;6.93;3.78;;;17.60;90.00;;;;;;4949728;28;20026;-73
2021/07/17 00:46:14;;;;;;;4.30;3.63;;;17.60;90.00;;;;;;4948982;28;20027;-73
2021/07/17 00:48:39;;;;;;;3.85;3.30;;;17.50;90.20;;;;;;4938062;28;20085;-74
2021/07/17 00:51:06;;;;;;;4.18;3.30;;;17.50;90.00;;;;;;4941694;28;20095;-73
2021/07/17 00:53:32;;;;;;;3.85;3.45;;;17.50;90.20;;;;;;4951468;28;20486;-73
2021/07/17 00:55:58;;;;;;;4.18;3.78;;;17.50;90.30;;;;;;4947077;28;20106;-73
2021/07/17 00:58:30;;;;;;;4.32;3.92;;;17.50;90.30;;;;;;4948850;28;20027;-73
2021/07/17 01:00:57;;;;;;;5.93;4.20;;;17.40;90.50;;;;;;4939088;28;20027;-73
2021/07/17 01:03:24;;;;;;;8.02;3.92;;;17.40;90.50;;;;;;4943995;28;20023;-72
2021/07/17 01:05:50;;;;;;;6.15;3.70;;;17.40;90.40;;;;;;4949852;28;20110;-73
2021/07/17 01:08:19;;;;;;;4.10;3.70;;;17.40;90.40;;;;;;4932674;28;20031;-73
2021/07/17 01:10:45;;;;;;;4.38;3.75;;;17.40;90.40;;;;;;4939470;28;20439;-73
2021/07/17 01:13:10;;;;;;;4.82;3.88;;;17.40;90.20;;;;;;4949651;28;20057;-73
2021/07/17 01:15:36;;;;;;;4.38;3.78;;;17.40;90.20;;;;;;4941516;28;20033;-72
2021/07/17 01:18:03;;;;;;;4.63;4.10;;;17.40;90.30;;;;;;4944216;28;20027;-73
2021/07/17 01:20:29;;;;;;;4.93;3.88;;;17.30;90.40;;;;;;4947837;28;20450;-73
2021/07/17 01:22:55;;;;;;;4.47;3.92;;;17.30;90.40;;;;;;4941655;28;20039;-72
2021/07/17 01:25:26;;;;;;;4.50;3.88;;;17.30;90.30;;;;;;4941250;28;20045;-73
2021/07/17 01:27:54;;;;;;;4.38;3.95;;;17.30;90.30;;;;;;4945918;28;21551;-72
2021/07/17 01:30:23;;;;;;;8.10;3.97;;;17.30;90.30;;;;;;4944159;28;20551;-73
2021/07/17 01:32:49;;;;;;;6.03;3.67;;;17.30;90.30;;;;;;4938598;28;20027;-73
2021/07/17 01:35:15;;;;;;;5.38;3.80;;;17.30;90.20;;;;;;4941784;28;20098;-73
2021/07/17 01:37:41;;;;;;;4.97;3.75;;;17.30;90.30;;;;;;4939473;28;20051;-72
2021/07/17 01:40:11;;;;;;;4.30;3.72;;;17.20;90.40;;;;;;4938818;28;20035;-73
2021/07/17 01:42:38;;;;;;;6.40;4.32;;;17.20;90.30;;;;;;4938400;28;20027;-72
2021/07/17 01:45:06;;;;;;;4.47;3.90;;;17.00;91.20;;;;;;4945498;28;20071;-72
2021/07/17 01:47:34;;;;;;;;;;;17.00;91.20;;;;;;4942864;28;20049;-73
2021/07/17 01:50:00;;;;;;;4.80;4.33;;;17.00;91.00;;;;;;4937263;28;19910;-72
2021/07/17 01:52:26;;;;;;;4.60;4.00;;;17.10;90.90;;;;;;4946587;28;20293;-73
2021/07/17 01:54:52;;;;;;;4.20;3.80;;;17.10;90.70;;;;;;4940134;28;20058;-73
2021/07/17 01:57:18;;;;;;;4.43;3.78;;;17.10;90.80;;;;;;4944506;28;20031;-72
2021/07/17 01:59:46;;;;;;;4.85;3.65;;;17.00;90.80;;;;;;4941863;28;20023;-73
2021/07/17 02:02:12;;;;;;;3.90;3.53;;;17.00;90.70;;;;;;4935452;28;20059;-72
2021/07/17 02:04:38;;;;;;;4.38;3.97;;;16.90;91.30;;;;;;4942034;28;20070;-73
2021/07/17 02:07:07;;;;;;;5.20;3.70;;;16.90;91.00;;;;;;4942062;28;20051;-72
2021/07/17 02:09:34;;;;;;;7.65;4.80;;;16.90;91.10;;;;;;4942934;28;20514;-73
2021/07/17 02:12:01;;;;;;;4.80;3.90;;;16.90;91.80;;;;;;4946659;28;20031;-72
2021/07/17 02:14:27;;;;;;;5.60;4.03;;;17.00;91.70;;;;;;4946128;28;20046;-73
2021/07/17 02:16:52;;;;;;;5.70;4.72;;;17.00;91.80;;;;;;4947862;28;20737;-73
2021/07/17 02:19:22;;;;;;;6.43;4.60;;;17.00;92.10;;;;;;4945466;28;20035;-72
2021/07/17 02:21:52;;;;;;;5.60;4.30;;;16.90;92.30;;;;;;4942769;28;20069;-72
2021/07/17 02:24:19;;;;;;;4.80;4.40;;;16.90;92.00;;;;;;4938771;28;20098;-72
2021/07/17 02:26:48;;;;;;;5.68;4.72;;;16.90;92.20;;;;;;4941909;28;20050;-73
2021/07/17 02:29:15;;;;;;;7.65;4.47;;;17.00;92.30;;;;;;4945911;28;20032;-72
2021/07/17 02:31:41;;;;;;;5.35;4.55;;;17.00;92.10;;;;;;4949126;28;20036;-71
2021/07/17 02:34:08;;;;;;;5.55;4.75;;;17.00;91.90;;;;;;4944380;28;20049;-72
2021/07/17 02:36:34;;;;;;;5.13;4.47;;;17.00;91.80;;;;;;4944804;28;20050;-72
2021/07/17 02:39:00;;;;;;;6.70;4.50;;;17.10;91.90;;;;;;4944068;28;20058;-73
2021/07/17 02:41:26;;;;;;;6.50;5.32;;;17.10;91.80;;;;;;4947496;28;20454;-73
2021/07/17 02:43:52;;;;;;;9.60;6.43;;;17.10;92.30;;;;;;4950135;28;20441;-73
2021/07/17 02:46:18;;;;;;;7.15;5.55;;;16.90;93.30;;;;;;4952712;28;20034;-72
2021/07/17 02:48:44;;;;;;;6.28;5.25;;;16.90;92.80;;;;;;4946225;28;20035;-73
2021/07/17 02:51:09;;;;;;;8.40;6.95;;;17.00;92.50;;;;;;4940053;28;20054;-73
2021/07/17 02:53:35;;;;;;;10.05;7.60;;;17.10;93.40;;;;;;4941054;28;20086;-72
2021/07/17 02:56:01;;;;;;;10.20;7.05;;;17.10;93.20;;;;;;4946503;28;20510;-72
2021/07/17 02:58:27;;;;;;;11.02;8.15;;;17.10;92.80;;;;;;4949501;28;20027;-73
2021/07/17 03:00:55;;;;;;;11.65;7.97;;;17.20;92.90;;;;;;4940870;28;20035;-71
2021/07/17 03:03:22;;;;;;;10.85;8.00;;;17.20;93.10;;;;;;4946007;28;20023;-72
2021/07/17 03:05:48;;;;;;;14.48;9.35;;;17.20;93.10;;;;;;4949689;28;20035;-73
2021/07/17 03:08:16;;;;;;;13.75;9.05;;;17.20;93.60;;;;;;4946321;28;20031;-73
2021/07/17 03:10:43;;;;;;;13.20;9.63;;;17.30;93.60;;;;;;4947655;28;20019;-73
2021/07/17 03:13:10;;;;;;;16.70;10.52;;;17.30;93.70;;;;;;4946396;28;20035;-72
2021/07/17 03:15:35;;;;;;;13.63;9.85;;;17.40;93.60;;;;;;4942721;28;20135;-73
2021/07/17 03:18:01;;;;;;;14.48;8.52;;;17.40;93.30;;;;;;4943195;28;20118;-72
2021/07/17 03:20:27;;;;;;;16.77;10.38;;;17.40;93.00;;;;;;4944855;28;20065;-73
2021/07/17 03:22:53;;;;;;;13.65;9.18;;;17.50;93.40;;;;;;4949653;28;20026;-73
2021/07/17 03:25:18;;;;;;;16.95;9.82;;;17.50;93.40;;;;;;4946498;28;20035;-72
2021/07/17 03:27:44;;;;;;;17.98;10.52;;;17.50;93.30;;;;;;4940962;28;20034;-72
2021/07/17 03:30:11;;;;;;;15.00;9.60;;;17.50;93.30;;;;;;4945651;28;20542;-72
2021/07/17 03:32:37;;;;;;;14.13;9.65;;;17.50;93.20;;;;;;4940624;28;20043;-72
2021/07/17 03:35:04;;;;;;;17.65;10.25;;;17.50;93.20;;;;;;4947664;28;20028;-71
2021/07/17 03:37:29;;;;;;;14.68;9.65;;;17.50;93.10;;;;;;4942596;28;20110;-71
2021/07/17 03:39:55;;;;;;;13.43;9.32;;;17.50;92.80;;;;;;4943581;28;20126;-71
2021/07/17 03:42:21;;;;;;;16.98;11.05;;;17.60;93.10;;;;;;4946397;28;20036;-72
2021/07/17 03:44:46;;;;;;;13.98;9.32;;;17.60;93.10;;;;;;4945190;28;20127;-72
2021/07/17 03:47:12;;;;;;;16.23;10.60;;;17.60;93.00;;;;;;4944476;28;20046;-71
2021/07/17 03:49:38;;;;;;;20.17;10.70;;;17.60;92.80;;;;;;4948722;28;20030;-72
2021/07/17 03:52:04;;;;;;;16.35;10.02;;;17.60;93.00;;;;;;4951349;28;20195;-71
2021/07/17 03:54:30;;;;;;;16.27;10.30;;;17.60;92.70;;;;;;4949713;28;20033;-73
2021/07/17 03:56:56;;;;;;;15.30;9.40;;;17.60;92.60;;;;;;4964932;28;20406;-73
2021/07/17 03:59:22;;;;;;;18.27;10.82;;;17.60;92.60;;;;;;4941787;28;20031;-71
2021/07/17 04:01:48;;;;;;;20.73;10.68;;;17.60;92.60;;;;;;4942515;28;20490;-71
2021/07/17 04:04:14;;;;;;;15.52;10.55;;;17.60;92.80;;;;;;4950027;28;20038;-72
2021/07/17 04:06:40;;;;;;;17.48;10.82;;;17.60;92.80;;;;;;4953120;28;20110;-72
2021/07/17 04:09:06;;;;;;;17.98;10.63;;;17.60;92.90;;;;;;4944801;28;20031;-72
2021/07/17 04:11:33;;;;;;;19.75;10.45;;;17.70;92.60;;;;;;4941521;28;20027;-73
2021/07/17 04:13:58;;;;;;;18.27;11.23;;;17.70;92.60;;;;;;4946361;28;20030;-73
2021/07/17 04:16:24;;;;;;;16.42;10.20;;;17.70;92.80;;;;;;4953108;28;20142;-72
2021/07/17 04:18:50;;;;;;;17.98;10.85;;;17.60;93.00;;;;;;4948053;28;20443;-72
2021/07/17 04:21:16;;;;;;;17.42;10.02;;;17.60;92.50;;;;;;4949305;28;20035;-72
2021/07/17 04:23:41;;;;;;;23.10;11.32;;;17.70;92.50;;;;;;4954875;28;20032;-71
2021/07/17 04:26:08;;;;;;;18.42;11.85;;;17.60;92.70;;;;;;4939628;28;20746;-71
2021/07/17 04:28:34;;;;;;;18.27;11.05;;;17.60;92.80;;;;;;4941517;28;20027;-72
2021/07/17 04:31:00;;;;;;;17.75;10.90;;;17.60;92.90;;;;;;4948592;28;20035;-72
2021/07/17 04:33:26;;;;;;;19.85;10.60;;;17.60;92.90;;;;;;4946522;28;20031;-73
2021/07/17 04:35:52;;;;;;;15.25;10.18;;;17.60;92.70;;;;;;4946138;28;20031;-72
2021/07/17 04:38:17;;;;;;;19.08;10.20;;;17.60;92.70;;;;;;4943538;28;20023;-73
2021/07/17 04:40:46;;;;;;;20.10;11.88;;;17.60;92.70;;;;;;4941778;28;20023;-72
2021/07/17 04:43:12;;;;;;;19.92;10.95;;;17.60;92.70;;;;;;4945075;28;20054;-73
2021/07/17 04:45:38;;;;;;;21.20;11.70;;;17.60;92.90;;;;;;4942195;28;20486;-73
2021/07/17 04:48:04;;;;;;;20.15;11.40;;;17.60;92.80;;;;;;4945965;28;20030;-72
2021/07/17 04:50:37;;;;;;;17.30;11.15;;;17.60;92.70;;;;;;4942437;28;20102;-72
2021/07/17 04:53:04;;;;;;;20.15;10.95;;;17.60;92.80;;;;;;4943699;28;20435;-71
2021/07/17 04:55:30;;;;;;;23.50;10.63;;;17.50;92.80;;;;;;4945931;28;20031;-71
2021/07/17 04:57:55;;;;;;;22.23;11.50;;;17.60;92.80;;;;;;4941841;28;20082;-72
2021/07/17 05:00:21;;;;;;;22.58;11.90;;;17.60;92.60;;;;;;4942920;28;20023;-72
2021/07/17 05:02:48;;;;;;;21.08;10.75;;;17.60;92.60;;;;;;4945190;28;20055;-72
2021/07/17 05:05:16;;;;;;;20.83;11.60;;;17.60;92.80;;;;;;4944816;28;20023;-72
2021/07/17 05:07:41;;;;;;;17.67;9.98;;;17.60;92.80;;;;;;4943253;28;20367;-72
2021/07/17 05:10:07;;;;;;;20.85;11.13;;;17.60;92.60;;;;;;4938334;28;20039;-73
2021/07/17 05:12:33;;;;;;;20.10;10.43;;;17.60;92.60;;;;;;4942166;28;20027;-72
2021/07/17 05:14:59;;;;;;;20.40;11.38;;;17.60;92.60;;;;;;4941658;28;20034;-72
2021/07/17 05:17:24;;;;;;;22.10;11.32;;;17.60;92.60;;;;;;4946402;28;20043;-72
2021/07/17 05:19:50;;;;;;;18.50;10.57;;;17.60;92.50;;;;;;4942055;28;20122;-71
2021/07/17 05:22:16;;;;;;;19.58;11.68;;;17.60;92.50;;;;;;4939823;28;20031;-71
2021/07/17 05:24:43;;;;;;;18.27;11.27;;;17.60;92.60;;;;;;4945498;28;20109;-72
2021/07/17 05:27:09;;;;;;;27.95;12.57;;;17.60;92.50;;;;;;4941550;28;20486;-72
2021/07/17 05:29:34;;;;;;;20.75;11.57;;;17.50;92.90;;;;;;4944402;28;20046;-72
2021/07/17 05:32:00;;;;;;;22.13;11.48;;;17.50;93.00;;;;;;4942448;28;20094;-71
2021/07/17 05:34:26;;;;;;;18.17;11.73;;;17.50;92.90;;;;;;4941770;28;20399;-72
2021/07/17 05:36:52;;;;;;;20.27;11.73;;;17.50;92.70;;;;;;4938927;28;20048;-73
2021/07/17 05:39:17;;;;;;;19.00;10.65;;;17.60;92.80;;;;;;4943014;28;20027;-72
2021/07/17 05:41:43;;;;;;;22.13;11.68;;;17.60;92.80;;;;;;4939747;28;20074;-73
2021/07/17 05:44:09;;;;;;;20.45;11.77;;;17.50;92.70;;;;;;4948358;28;20043;-72
2021/07/17 05:46:34;;;;;;;24.48;11.05;;;17.60;92.70;;;;;;4941845;28;20774;-72
2021/07/17 05:49:00;;;;;;;22.38;11.88;;;17.60;92.60;;;;;;4942873;28;20023;-72
2021/07/17 05:51:26;;;;;;;21.30;12.43;;;17.60;92.60;;;;;;4940212;28;20391;-72
2021/07/17 05:53:51;;;;;;;25.33;11.60;;;17.60;92.60;;;;;;4942315;28;20049;-71
2021/07/17 05:56:17;;;;;;;24.10;11.30;;;17.60;92.60;;;;;;4943211;28;20054;-72
2021/07/17 05:58:52;;;;;;;23.10;11.68;;;17.60;92.60;;;;;;4943187;28;20031;-73
2021/07/17 06:01:18;;;;;;;23.70;11.77;;;17.60;92.60;;;;;;4938911;28;20042;-72
2021/07/17 06:03:45;;;;;;;22.75;11.50;;;17.70;92.70;;;;;;4940834;28;20034;-72
2021/07/17 06:06:11;;;;;;;21.70;12.07;;;17.70;92.50;;;;;;4936819;28;20063;-72
2021/07/17 06:08:37;;;;;;;23.92;11.70;;;17.70;92.60;;;;;;4939356;28;20142;-72
2021/07/17 06:11:02;;;;;;;24.60;12.32;;;17.70;92.60;;;;;;4939708;28;20035;-72
2021/07/17 06:13:28;;;;;;;20.38;10.77;;;17.70;92.50;;;;;;4937509;28;20035;-72
2021/07/17 06:15:54;;;;;;;20.80;10.95;;;17.70;92.50;;;;;;4938577;28;20035;-73
2021/07/17 06:18:19;;;;;;;19.27;11.90;;;17.70;92.30;;;;;;4940471;28;20027;-72
2021/07/17 06:20:45;;;;;;;21.60;10.75;;;17.80;92.20;;;;;;4941372;28;20039;-73
2021/07/17 06:23:11;;;;;;;24.52;11.52;;;17.70;92.30;;;;;;4942096;28;20035;-72
2021/07/17 06:25:36;;;;;;;23.75;11.00;;;17.80;92.30;;;;;;4949688;28;20367;-72
2021/07/17 06:28:03;;;;;;;23.35;11.27;;;17.70;92.30;;;;;;4944457;28;20101;-72
2021/07/17 06:30:29;;;;;;;26.55;12.10;;;17.80;92.40;;;;;;4942141;28;20027;-72
2021/07/17 06:32:55;;;;;;;22.35;12.02;;;17.80;92.20;;;;;;4960232;28;20052;-73
2021/07/17 06:35:21;;;;;;;22.10;12.32;;;17.80;92.20;;;;;;4934088;28;20023;-73
2021/07/17 06:37:46;;;;;;;23.40;11.70;;;17.80;92.10;;;;;;4934472;28;20962;-73
2021/07/17 06:40:14;;;;;;;22.92;11.77;;;17.90;92.10;;;;;;4936775;28;20097;-73
2021/07/17 06:42:45;;;;;;;20.73;11.25;;;17.80;91.90;;;;;;4937685;28;20032;-73
2021/07/17 06:45:11;;;;;;;23.15;12.30;;;17.80;92.00;;;;;;4940773;28;20069;-74
2021/07/17 06:47:37;;;;;;;21.88;11.15;;;17.80;92.10;;;;;;4940560;28;20046;-74
2021/07/17 06:50:04;;;;;;;22.65;11.27;;;17.80;92.10;;;;;;4935813;28;20035;-74
2021/07/17 06:52:29;;;;;;;24.15;12.05;;;17.80;92.10;;;;;;4937270;28;20026;-74
2021/07/17 06:54:55;;;;;;;24.60;12.40;;;17.90;92.20;;;;;;4951130;28;20035;-74
2021/07/17 06:57:20;;;;;;;21.55;11.35;;;17.80;92.00;;;;;;4941181;28;20438;-74
2021/07/17 06:59:46;;;;;;;23.33;11.60;;;17.90;92.00;;;;;;4946979;28;20093;-74
2021/07/17 07:02:12;;;;;;;23.23;11.35;;;17.80;92.20;;;;;;4945684;28;20173;-74
2021/07/17 07:04:41;;;;;;;23.48;11.45;;;17.90;92.10;;;;;;4954054;28;20034;-74
2021/07/17 07:07:08;;;;;;;24.17;11.93;;;17.90;92.40;;;;;;4952290;28;20498;-74
2021/07/17 07:09:34;;;;;;;22.95;11.50;;;17.90;92.10;;;;;;4955239;28;20024;-74
2021/07/17 07:12:00;;;;;;;27.10;11.50;;;17.90;92.10;;;;;;4953941;28;20055;-74
2021/07/17 07:14:26;;;;;;;22.40;11.27;;;17.90;92.00;;;;;;4949921;28;20067;-74
2021/07/17 07:16:52;;;;;;;23.35;11.50;;;17.90;92.00;;;;;;4949345;28;20061;-74
2021/07/17 07:19:17;;;;;;;27.65;11.98;;;17.90;92.20;;;;;;4953132;28;20664;-73
2021/07/17 07:21:43;;;;;;;24.35;12.27;;;17.90;92.00;;;;;;4948567;28;20039;-74
2021/07/17 07:24:09;;;;;;;24.20;12.77;;;17.90;92.10;;;;;;4948179;28;20105;-74
2021/07/17 07:26:35;;;;;;;24.13;12.38;;;17.90;92.00;;;;;;4943867;28;20038;-73
2021/07/17 07:29:00;;;;;;;25.80;11.80;;;17.90;92.00;;;;;;4943375;28;20038;-73
2021/07/17 07:31:26;;;;;;;25.45;12.55;;;18.00;91.90;;;;;;4951049;28;20035;-73
2021/07/17 07:33:53;;;;;;;26.40;12.43;;;18.00;92.10;;;;;;4948658;28;20406;-73
2021/07/17 07:36:18;;;;;;;24.38;11.60;;;18.00;92.00;;;;;;4948796;28;20093;-73
2021/07/17 07:38:45;;;;;;;21.92;11.20;;;18.00;91.70;;;;;;4962457;28;20565;-73
2021/07/17 07:41:19;;;;;;;24.02;11.80;;;18.10;91.70;;;;;;4946257;28;20215;-75
2021/07/17 07:43:46;;;;;;;24.77;11.27;;;18.10;91.80;;;;;;4943405;28;20061;-75
2021/07/17 07:46:13;;;;;;;24.75;11.40;;;18.10;91.40;;;;;;4944100;28;20028;-73
2021/07/17 07:48:41;;;;;;;23.23;11.82;;;18.10;91.40;;;;;;4947463;28;20031;-73
2021/07/17 07:51:10;;;;;;;21.13;10.98;;;18.20;91.50;;;;;;4942723;28;20027;-72
2021/07/17 07:53:39;;;;;;;22.38;11.20;;;18.20;91.20;;;;;;4941468;28;20034;-73
2021/07/17 07:56:07;;;;;;;21.88;11.55;;;18.20;91.30;;;;;;4947839;28;20110;-73
2021/07/17 07:58:33;;;;;;;18.38;10.88;;;18.30;91.40;;;;;;4945929;28;20114;-75
2021/07/17 08:00:59;;;;;;;20.45;11.68;;;18.30;91.40;;;;;;4948645;28;20114;-73
2021/07/17 08:03:24;;;;;;;22.02;11.80;;;18.30;91.30;;;;;;4950347;28;20036;-73
2021/07/17 08:05:50;;;;;;;20.73;12.02;;;18.20;91.10;;;;;;4939626;28;20038;-73
2021/07/17 08:08:16;;;;;;;20.30;11.13;;;18.30;91.30;;;;;;4941364;28;20027;-74
2021/07/17 08:10:42;;;;;;;23.27;11.85;;;18.30;91.00;;;;;;4951189;28;20033;-73
2021/07/17 08:13:07;;;;;;;23.02;12.00;;;18.40;91.40;;;;;;4941797;28;20173;-74
2021/07/17 08:15:33;;;;;;;18.98;10.93;;;18.40;91.10;;;;;;4948020;28;20700;-73
2021/07/17 08:17:59;;;;;;;22.25;11.15;;;18.40;91.30;;;;;;4944650;28;20380;-74
2021/07/17 08:20:26;;;;;;;19.20;10.80;;;18.40;90.90;;;;;;4938627;28;20123;-74
2021/07/17 08:22:51;;;;;;;17.75;10.07;;;18.50;90.90;;;;;;4943199;28;20047;-73
2021/07/17 08:25:18;;;;;;;18.67;10.40;;;18.50;90.90;;;;;;4944494;28;20035;-72
2021/07/17 08:27:43;;;;;;;15.65;9.82;;;18.50;90.90;;;;;;4947457;28;20069;-73
2021/07/17 08:30:11;;;;;;;22.88;10.45;;;18.50;90.80;;;;;;4949251;28;20024;-73
2021/07/17 08:32:37;;;;;;;20.33;10.25;;;18.40;90.50;;;;;;4944158;28;20098;-73
2021/07/17 08:35:04;;;;;;;18.65;10.27;;;18.40;90.50;;;;;;4944695;28;20491;-73
2021/07/17 08:37:29;;;;;;;18.48;9.43;;;18.40;90.80;;;;;;4949629;28;20039;-73
2021/07/17 08:39:55;;;;;;;20.63;10.20;;;18.50;90.90;;;;;;4945923;28;20031;-74
2021/07/17 08:42:23;;;;;;;18.40;9.98;;;18.50;90.90;;;;;;4938082;28;22049;-73
2021/07/17 08:44:49;;;;;;;15.35;9.40;;;18.50;91.10;;;;;;4955698;28;20043;-73
2021/07/17 08:47:16;;;;;;;20.92;10.02;;;18.50;90.90;;;;;;4942777;28;20122;-73
2021/07/17 08:49:44;;;;;;;18.95;10.48;;;18.50;90.80;;;;;;4940588;28;20059;-72
2021/07/17 08:52:10;;;;;;;19.65;9.40;;;18.50;90.70;;;;;;4941262;28;20100;-72
2021/07/17 08:54:40;;;;;;;16.23;9.30;;;18.50;90.80;;;;;;4951175;28;20037;-72
2021/07/17 08:57:10;;;;;;;16.65;9.65;;;18.60;90.90;;;;;;4951263;28;20037;-72
2021/07/17 08:59:37;;;;;;;16.52;9.23;;;18.50;90.60;;;;;;4945605;28;20027;-72
2021/07/17 09:02:05;;;;;;;19.77;10.83;;;18.50;90.70;;;;;;4942844;28;20097;-73
2021/07/17 09:04:31;;;;;;;19.10;9.82;;;18.50;90.80;;;;;;4941376;28;20031;-74
2021/07/17 09:06:57;;;;;;;19.23;8.98;;;18.40;90.70;;;;;;4938232;28;20065;-74
2021/07/17 09:09:38;;;;;;;18.40;9.45;;;18.40;90.70;;;;;;4937341;28;21642;-74
2021/07/17 09:12:21;;;;;;;17.45;10.18;;;18.40;91.20;;;;;;4938683;28;20122;-74
2021/07/17 09:14:48;;;;;;;19.02;9.32;;;18.50;91.30;;;;;;4946723;28;20030;-74
2021/07/17 09:17:27;;;;;;;22.80;10.43;;;18.50;91.10;;;;;;4937462;28;21633;-74
2021/07/17 09:19:55;;;;;;;17.30;10.70;;;18.50;91.10;;;;;;4941503;28;20054;-74
2021/07/17 09:22:35;;;;;;;18.00;9.80;;;18.50;91.10;;;;;;4948178;28;20035;-73
2021/07/17 09:25:11;;;;;;;18.60;9.55;;;18.50;91.20;;;;;;4941745;28;20105;-73
2021/07/17 09:27:37;;;;;;;18.15;9.70;;;18.40;91.30;;;;;;4941087;28;20166;-73
2021/07/17 09:30:24;;;;;;;21.02;9.40;;;18.50;91.40;;;;;;4942380;28;20500;-73
2021/07/17 09:32:57;;;;;;;21.38;10.88;;;18.50;91.30;;;;;;4944240;28;20026;-73
2021/07/17 09:35:23;;;;;;;17.88;9.10;;;18.50;91.60;;;;;;4946007;28;20039;-74
2021/07/17 09:37:56;;;;;;;16.42;9.02;;;18.50;91.40;;;;;;4949982;28;20031;-73
2021/07/17 09:40:23;;;;;;;15.60;9.25;;;18.50;91.50;;;;;;4946106;28;20035;-74
2021/07/17 09:42:49;;;;;;;18.67;9.05;;;18.50;91.30;;;;;;4954612;28;20082;-72
2021/07/17 09:45:36;;;;;;;21.05;9.63;;;18.60;91.30;;;;;;4948039;28;20038;-72
2021/07/17 09:48:32;;;;;;;18.08;9.93;;;18.60;91.20;;;;;;4946410;28;20031;-73
2021/07/17 09:51:00;;;;;;;17.67;9.77;;;18.60;91.40;;;;;;4950332;28;20528;-73
2021/07/17 09:53:44;;;;;;;17.48;10.20;;;18.70;91.30;;;;;;4951994;28;20034;-72
2021/07/17 09:56:10;;;;;;;19.00;9.35;;;18.70;91.30;;;;;;4948419;28;20034;-72
2021/07/17 09:58:38;;;;;;;16.05;9.82;;;18.70;91.20;;;;;;4949083;28;20041;-73
2021/07/17 10:01:27;;;;;;;15.73;8.63;;;18.70;91.30;;;;;;4946397;28;20032;-73
2021/07/17 10:03:58;;;;;;;15.45;9.40;;;18.80;91.30;;;;;;4944891;28;20737;-73
2021/07/17 10:06:30;;;;;;;19.05;9.38;;;18.90;91.00;;;;;;4948751;28;20118;-72
2021/07/17 10:08:57;;;;;;;16.40;9.05;;;18.90;90.70;;;;;;4946948;28;20023;-72
2021/07/17 10:11:24;;;;;;;15.88;8.95;;;18.90;90.70;;;;;;4948427;28;20482;-72
2021/07/17 10:13:50;;;;;;;18.88;8.93;;;18.90;90.70;;;;;;4950719;28;20071;-72
2021/07/17 10:16:27;;;;;;;16.52;8.55;;;19.00;91.00;;;;;;4948078;28;20062;-73
2021/07/17 10:18:55;;;;;;;14.63;8.80;;;19.10;91.00;;;;;;4948192;28;20031;-73
2021/07/17 10:21:22;;;;;;;;;;;19.10;90.60;;;;;;4952600;28;20110;-73
2021/07/17 10:23:48;;;;;;;17.95;9.88;;;19.10;90.60;;;;;;4949264;28;19965;-73
2021/07/17 10:26:15;;;;;;;17.23;8.68;;;19.00;90.30;;;;;;4953165;28;20031;-74
2021/07/17 10:28:41;;;;;;;18.95;9.52;;;19.00;90.50;;;;;;4949474;28;20498;-74
2021/07/17 10:31:09;;;;;;;20.52;9.55;;;18.90;90.40;;;;;;4948748;28;20043;-74
2021/07/17 10:33:35;;;;;;;13.40;8.48;;;18.90;90.40;;;;;;4949651;28;20720;-74
2021/07/17 10:36:08;;;;;;;16.90;9.15;;;18.90;90.40;;;;;;4952441;28;20030;-74
2021/07/17 10:38:36;;;;;;;14.02;7.95;;;18.90;90.60;;;;;;4947478;28;20051;-74
2021/07/17 10:41:02;;;;;;;;;;;18.90;90.90;;;;;;4949718;28;20027;-78
2021/07/17 10:43:28;;;;;;;14.50;7.60;;;18.90;90.40;;;;;;4947747;28;19914;-78
2021/07/17 10:45:54;;;;;;;14.50;7.30;;;19.10;90.60;;;;;;4951242;28;20371;-75
2021/07/17 10:48:29;;;;;;;11.43;7.53;;;19.10;90.20;;;;;;4948695;28;20086;-78
2021/07/17 10:51:23;;;;;;;20.50;8.30;;;19.10;90.10;;;;;;4949392;28;21701;-75
2021/07/17 10:53:53;;;;;;;12.15;6.60;;;19.20;90.00;;;;;;4947370;28;20483;-79
2021/07/17 10:56:32;;;;;;;12.35;6.45;;;19.30;90.00;;;;;;4949013;28;20027;-77
2021/07/17 10:59:07;;;;;;;10.82;6.18;;;19.30;89.60;;;;;;4950850;28;20116;-80
2021/07/17 11:01:55;;;;;;;10.43;6.60;;;19.50;90.20;;;;;;4955174;28;20035;-79
2021/07/17 11:04:50;;;;;;;10.77;6.53;;;19.50;89.70;;;;;;4971890;28;20043;-79
2021/07/17 11:07:16;;;;;;;10.20;6.38;;;19.40;88.60;;;;;;4950655;28;20042;-80
2021/07/17 11:09:50;;;;;;;10.93;6.35;;;19.40;88.50;;;;;;4946842;28;20019;-78
2021/07/17 11:12:21;;;;;;;13.02;6.90;;;19.40;88.70;;;;;;4950227;28;20024;-79
2021/07/17 11:14:47;;;;;;;11.45;6.18;;;19.40;88.70;;;;;;4949584;28;20042;-78
2021/07/17 11:17:39;;;;;;;8.95;6.35;;;19.40;89.60;;;;;;4950585;28;20151;-78
2021/07/17 11:20:30;;;;;;;9.88;6.30;;;19.50;89.40;;;;;;4956337;28;20159;-77
2021/07/17 11:23:29;;;;;;;10.68;5.93;;;19.50;89.60;;;;;;4949656;28;20526;-80
2021/07/17 11:26:00;;;;;;;8.45;5.78;;;19.60;88.80;;;;;;4949863;28;20078;-78
2021/07/17 11:28:44;;;;;;;8.25;5.50;;;19.70;89.30;;;;;;4951680;28;20081;-79
2021/07/17 11:31:26;;;;;;;9.68;5.90;;;19.70;88.90;;;;;;4948412;28;20058;-79
2021/07/17 11:34:14;;;;;;;8.68;5.95;;;19.80;89.30;;;;;;4969037;28;20019;-80
2021/07/17 11:36:58;;;;;;;10.45;5.40;;;19.80;88.40;;;;;;4950644;28;20099;-80
2021/07/17 11:39:28;;;;;;;8.48;4.90;;;19.90;88.10;;;;;;4953187;28;20031;-79
2021/07/17 11:41:56;;;;;;;11.18;5.78;;;19.90;88.20;;;;;;4956600;28;20032;-78
2021/07/17 11:44:28;;;;;;;7.00;5.18;;;19.90;87.00;;;;;;4955039;28;20035;-79
2021/07/17 11:47:12;;;;;;;7.85;5.30;;;20.00;87.80;;;;;;4957963;28;20036;-79
2021/07/17 11:49:43;;;;;;;6.97;5.05;;;20.00;87.10;;;;;;4951612;28;20027;-79
2021/07/17 11:52:14;;;;;;;9.50;5.45;;;20.00;87.40;;;;;;4950666;28;20050;-79
2021/07/17 11:54:42;;;;;;;7.00;4.50;;;19.90;86.50;;;;;;4954061;28;20422;-79
2021/07/17 11:57:25;;;;;;;7.63;5.15;;;20.00;87.60;;;;;;4949839;28;20060;-78
2021/07/17 11:59:57;;;;;;;7.90;5.07;;;20.00;86.60;;;;;;4951890;28;20498;-79
2021/07/17 12:02:24;;;;;;;7.15;5.32;;;20.00;86.80;;;;;;4952616;28;20039;-79
2021/07/17 12:05:14;;;;;;;7.68;4.90;;;20.00;85.80;;;;;;5094579;27;20135;-73
2021/07/17 12:07:42;;;;;;;8.85;5.28;;;20.00;86.30;;;;;;5020850;28;20029;-74
2021/07/17 12:10:13;;;;;;;7.22;5.28;;;20.00;86.30;;;;;;5021214;28;20036;-74
2021/07/17 12:12:41;;;;;;;7.72;5.15;;;19.90;86.60;;;;;;5023460;28;20418;-74
2021/07/17 12:15:22;;;;;;;8.73;5.18;;;19.90;86.30;;;;;;5020488;28;20115;-74
2021/07/17 12:17:47;;;;;;;10.18;5.70;;;19.90;86.00;;;;;;5036228;28;20428;-74
2021/07/17 12:20:13;;;;;;;10.77;5.97;;;19.90;86.60;;;;;;5022113;28;20148;-73
2021/07/17 12:23:07;;;;;;;9.45;5.95;;;19.90;86.80;;;;;;5062729;28;20059;-74
2021/07/17 12:25:54;;;;;;;9.23;5.38;;;19.90;86.50;;;;;;5025865;28;20037;-72
2021/07/17 12:28:36;;;;;;;9.00;5.70;;;19.90;86.50;;;;;;5022685;28;20457;-74
2021/07/17 12:31:07;;;;;;;7.30;5.45;;;19.90;85.80;;;;;;5014276;28;20105;-73
2021/07/17 12:33:40;;;;;;;8.20;5.20;;;19.90;86.50;;;;;;4982137;28;20038;-73
2021/07/17 12:36:11;;;;;;;7.40;5.68;;;19.90;87.10;;;;;;4981202;28;20039;-73
2021/07/17 12:38:38;;;;;;;7.40;5.35;;;20.00;86.90;;;;;;5014159;28;20031;-73
2021/07/17 12:41:13;;;;;;;6.28;5.22;;;20.00;86.40;;;;;;4986416;28;20030;-73